Agen-La Garenne Airport

LFBA · Lot-et-Garonne, Nouvelle-Aquitaine, Francja

Historia METAR LFBA · Agen-La Garenne Airport

Poniżej widzisz METAR-y z ostatnich kilku dni. Wybierz rok, aby przeglądać starsze METAR-y, począwszy od roku 2007.

26 lutego 2024

Czas Kod Pogoda Temp. Widoczność Sufit Wiatr METAR/SPECI
21:00
M
9 °C 10 km+ 1.100 ft 300° 300° 11 kt METAR LFBA 262000Z AUTO 30011KT 9999 OVC011 09/08 Q1002 TEMPO 31015G25KT 4000 SHRA BKN010 SCT020TCU
20:30
M
9 °C 10 km+ 1.200 ft 290° 290° 10 kt METAR LFBA 261930Z AUTO 29010KT 9999 BKN012/// BKN018/// OVC023/// //////TCU 09/08 Q1002 TEMPO 31015G25KT 4000 SHRA BECMG BKN008 OVC020
20:00
M
9 °C 10 km+ 1.300 ft 290° 290° 10 kt METAR LFBA 261900Z AUTO 29010KT 9999 -RA BKN013/// BKN019/// BKN043/// //////CB 09/08 Q1001 TEMPO 31015G25KT 4000 SHRA
19:30
M
9 °C 10 km+ 1.200 ft 310° 310° 6 kt METAR LFBA 261830Z AUTO 31006KT 9999 -RA FEW006/// BKN012/// BKN021/// ///CB 09/08 Q1000 TEMPO 31015G25KT 4000 SHRA
19:00
M
9 °C 10 km+ 2.100 ft 290° 290° 7 kt METAR LFBA 261800Z AUTO 29007KT 9999 RA FEW016/// BKN021/// BKN027/// //////CB 09/08 Q1000 TEMPO 29015G25KT 4000 SHRA BECMG BKN012
18:30
M
9 °C 8 km 1.200 ft 250° 250° 6 kt METAR LFBA 261730Z AUTO 25006KT 230V310 8000 RA BKN012/// BKN017/// OVC039/// //////CB 09/08 Q0999 TEMPO 29015G25KT 4000 SHRA BECMG BKN012
18:00
V
9 °C 10 km+ 3.800 ft 240° 240° 8 kt METAR LFBA 261700Z AUTO 24008KT 210V270 9999 -RA FEW015/// BKN038/// OVC049/// ///CB 09/09 Q0999 TEMPO 29015G25KT 4000 SHRA BKN013 SCT020CB
17:30
V
10 °C 10 km+ 3.700 ft 230° 230° 10 kt METAR LFBA 261630Z AUTO 23010KT 9999 RA FEW022/// BKN037/// OVC047/// //////CB 10/08 Q0998 TEMPO 29015G25KT 4000 SHRA BKN013 SCT020CB
17:00
V
10 °C 10 km+ 5.000 ft 240° 240° 8 kt METAR LFBA 261600Z AUTO 24008KT 210V280 9999 RA FEW016/// BKN050/// OVC064/// //////CB 10/08 Q0998 TEMPO 29015G25KT 4000 SHRA BKN013 SCT020CB
16:30
M
11 °C 10 km+ 1.600 ft 240° 240° 12 kt METAR LFBA 261530Z AUTO 24012KT 210V270 9999 OVC016/// //////TCU 11/08 Q0998 TEMPO 29015G25KT 4000 SHRA BKN013 SCT020CB
16:00
M
11 °C 10 km+ 2.000 ft 240° 240° 12 kt METAR LFBA 261500Z AUTO 24012KT 220V280 9999 BKN020/// BKN026/// BKN052/// //////TCU 11/07 Q0998 TEMPO 29015G25KT 4000 SHRA BKN013 SCT020CB
15:30
V
11 °C 10 km+ 6.800 ft 240° 240° 11 kt METAR LFBA 261430Z AUTO 24011KT 9999 FEW049/// OVC068/// //////TCU 11/08 Q0997 TEMPO 24015G25KT 4000 SHRA BKN013 SCT020CB
15:00
V
10 °C 10 km+ 6.600 ft 240° 240° 8 kt METAR LFBA 261400Z AUTO 24008KT 210V270 9999 SCT031/// BKN066/// BKN078/// ///TCU 10/07 Q0997 TEMPO 24015G25KT 4000 SHRA BKN013 SCT020CB
14:30
M
10 °C 10 km+ 3.000 ft 250° 250° 9 kt METAR LFBA 261330Z AUTO 25009KT 220V280 9999 -RA SCT022/// BKN030/// BKN037/// ///CB 10/08 Q0997 TEMPO 24015G25KT 4000 SHRA BKN013 SCT020CB
14:00
M
10 °C 6 km 1.900 ft 240° 240° 12 kt METAR LFBA 261300Z AUTO 24012KT 210V270 6000 RA BKN019/// BKN029/// OVC034/// //////TCU 10/08 Q0997 TEMPO 24015G25KT 4000 SHRA BKN013 SCT020CB
13:30
M
11 °C 9 km 2.100 ft 250° 250° 13 kt METAR LFBA 261230Z AUTO 25013KT 210V280 9000 -RA BKN021/// OVC027/// ///CB 11/08 Q0997 TEMPO 24015G25KT 4000 SHRA BKN013 SCT020CB
13:00
M
12 °C 10 km+ 1.900 ft 240° 240° 17 - 29 kt METAR LFBA 261200Z AUTO 24017G29KT 200V270 9999 -RA OVC019/// //////CB 12/08 Q0997 TEMPO 4000 SHRA BKN013 SCT020CB
12:30
M
11 °C 10 km+ 1.700 ft 230° 230° 15 kt METAR LFBA 261130Z AUTO 23015KT 190V270 9999 BKN017/// OVC033/// //////TCU 11/08 Q0997 TEMPO 24015G25KT 4000 SHRA SCT030CB
12:00
M
10 °C 10 km+ 1.700 ft 230° 230° 14 - 25 kt METAR LFBA 261100Z AUTO 23014G25KT 200V270 9999 -RA OVC017/// ///CB 10/08 Q0998 NOSIG
11:30
M
11 °C 10 km+ 1.700 ft 240° 240° 15 kt METAR LFBA 261030Z AUTO 24015KT 200V270 9999 BKN017/// BKN027/// //////TCU 11/08 Q0997 TEMPO 24015G25KT
11:00
M
10 °C 10 km+ 1.900 ft 230° 230° 13 kt METAR LFBA 261000Z AUTO 23013KT 190V270 9999 -DZ BKN019 BKN025 OVC031 10/08 Q0997 TEMPO 24015G25KT SCT030TCU
10:30
M
11 °C 10 km+ 3.000 ft 240° 240° 11 kt METAR LFBA 260930Z AUTO 24011KT 210V280 9999 FEW014 BKN030 BKN042 11/08 Q0997 TEMPO 24015G25KT SCT030TCU
10:00
V
10 °C 10 km+ 3.100 ft 230° 230° 12 kt METAR LFBA 260900Z AUTO 23012KT 190V260 9999 SCT022 BKN031 10/08 Q0997 TEMPO BKN020TCU
09:30
M
10 °C 10 km+ 2.400 ft 220° 220° 13 - 25 kt METAR LFBA 260830Z AUTO 22013G25KT 200V260 9999 BKN024 OVC029 10/07 Q0997 TEMPO BKN020TCU
09:00
M
10 °C 10 km+ 2.300 ft 240° 240° 13 kt METAR LFBA 260800Z AUTO 24013KT 200V270 9999 BKN023 BKN028 BKN033 10/07 Q0997 NOSIG
08:30
M
10 °C 10 km+ 2.400 ft 240° 240° 12 - 24 kt METAR LFBA 260730Z AUTO 24012G24KT 210V280 9999 BKN024 BKN031 BKN040 10/07 Q0997 NOSIG
08:00
M
10 °C 10 km+ 2.200 ft 230° 230° 10 kt METAR LFBA 260700Z AUTO 23010KT 9999 BKN022 BKN027 OVC033 10/07 Q0996 NOSIG
07:30
M
10 °C 10 km+ 2.500 ft 240° 240° 10 kt METAR LFBA 260630Z AUTO 24010KT 210V280 9999 FEW019 BKN025 OVC031 10/07 Q0996 NOSIG
07:00
M
10 °C 10 km+ 2.300 ft 240° 240° 9 kt METAR LFBA 260600Z AUTO 24009KT 200V290 9999 OVC023/// //////TCU 10/08 Q0996 BECMG SCT041 BKN055 OVC080
06:30
M
10 °C 10 km+ 2.400 ft 250° 250° 10 kt METAR LFBA 260530Z AUTO 25010KT 220V280 9999 SCT019/// BKN024/// BKN029/// //////TCU 10/08 Q0996
06:00
M
10 °C 6 km 2.700 ft 250° 250° 11 kt METAR LFBA 260500Z AUTO 25011KT 220V280 6000 RA FEW015 SCT021 BKN027 10/09 Q0996
05:30
V
10 °C 10 km+ 5.600 ft 240° 240° 9 kt METAR LFBA 260430Z AUTO 24009KT 210V270 9999 FEW023 SCT049 BKN056 10/08 Q0996
05:00
M
11 °C 10 km+ 2.800 ft 240° 240° 10 - 22 kt METAR LFBA 260400Z AUTO 24010G22KT 210V270 9999 FEW023/// BKN028/// BKN034/// //////TCU 11/08 Q0996
04:30
V
11 °C 10 km+ 4.000 ft 250° 250° 10 kt METAR LFBA 260330Z AUTO 25010KT 220V290 9999 FEW025/// BKN040/// BKN052/// //////TCU 11/08 Q0996
04:00
M
11 °C 10 km+ 2.600 ft 230° 230° 9 kt METAR LFBA 260300Z AUTO 23009KT 210V270 9999 -RA FEW021/// BKN026/// BKN034/// //////TCU 11/09 Q0996
03:30
M
11 °C 10 km+ 2.600 ft 230° 230° 9 kt METAR LFBA 260230Z AUTO 23009KT 200V260 9999 BKN026/// BKN032/// OVC056/// //////TCU 11/08 Q0996
03:00
V
11 °C 10 km+ 3.700 ft 230° 230° 9 - 19 kt METAR LFBA 260200Z AUTO 23009G19KT 190V280 9999 -RA SCT030/// BKN037/// BKN049/// //////TCU 11/09 Q0996
02:30
M
11 °C 10 km+ 3.000 ft 230° 230° 9 kt METAR LFBA 260130Z AUTO 23009KT 190V260 9999 BKN030 BKN035 BKN082 11/08 Q0996
02:00
V
11 °C 10 km+ - 250° 250° 11 - 22 kt METAR LFBA 260100Z AUTO 25011G22KT 220V290 9999 FEW023 SCT048 11/08 Q0996
01:30
V
11 °C 10 km+ 3.400 ft 250° 250° 12 kt METAR LFBA 260030Z AUTO 25012KT 210V280 9999 SCT026 BKN034 OVC041 11/08 Q0997
01:00
V
11 °C 10 km+ 3.200 ft 230° 230° 9 kt METAR LFBA 260000Z AUTO 23009KT 200V270 9999 FEW027 BKN032 BKN038 11/08 Q0997
00:30
M
11 °C 10 km+ 3.000 ft 230° 230° 9 kt METAR LFBA 252330Z AUTO 23009KT 200V280 9999 FEW019 BKN030 BKN038 11/09 Q0997
00:00
V
11 °C 10 km+ 3.900 ft 230° 230° 8 kt METAR LFBA 252300Z AUTO 23008KT 200V260 9999 FEW019 SCT027 BKN039 11/09 Q0997

25 lutego 2024

Czas Kod Pogoda Temp. Widoczność Sufit Wiatr METAR/SPECI
23:30
M
12 °C 10 km+ 2.500 ft 230° 230° 10 kt METAR LFBA 252230Z AUTO 23010KT 210V270 9999 BKN025 BKN032 OVC044 12/09 Q0997
23:00
M
11 °C 10 km+ 2.300 ft 230° 230° 10 kt METAR LFBA 252200Z AUTO 23010KT 200V260 9999 BKN023 BKN038 BKN068 11/09 Q0997
22:30
M
12 °C 10 km+ 2.500 ft 230° 230° 8 kt METAR LFBA 252130Z AUTO 23008KT 200V270 9999 BKN025 BKN032 BKN066 12/09 Q0998
22:00
V
12 °C 10 km+ 4.400 ft 240° 240° 10 kt METAR LFBA 252100Z AUTO 24010KT 210V270 9999 SCT028 BKN044 BKN070 12/09 Q0997 TEMPO 23015G25KT
21:30
V
12 °C 10 km+ 5.000 ft 240° 240° 12 kt METAR LFBA 252030Z AUTO 24012KT 210V270 9999 FEW030/// BKN050/// BKN070/// //////CB 12/08 Q0997 TEMPO 23015G25KT BECMG SCT020 BKN030
21:00
V
12 °C 10 km+ 10.000 ft 230° 230° 12 kt METAR LFBA 252000Z AUTO 23012KT 190V260 9999 FEW034 BKN100 OVC120 12/09 Q0997 TEMPO 23015G25KT
20:30
V
12 °C 10 km+ - 200° 200° 12 kt METAR LFBA 251930Z AUTO 20012KT 170V230 9999 //////CB 12/10 Q0996
20:00
M
11 °C 6 km 3.100 ft 230° 230° 4 - 16 kt METAR LFBA 251900Z AUTO 23004G16KT 140V290 6000 RA FEW015/// SCT025/// BKN031/// //////CB 11/11 Q0997
19:30
M
10 °C 6 km 3.300 ft 100° 100° 4 kt METAR LFBA 251830Z AUTO 10004KT 080V140 6000 RA SCT028/// BKN033/// BKN047/// //////CB 10/09 Q0997
19:00
M
10 °C 7 km 3.400 ft 100° 100° 6 kt METAR LFBA 251800Z AUTO 10006KT 7000 RA FEW026/// BKN034/// BKN049/// //////CB 10/09 Q0997
18:30
V
10 °C 9 km 3.400 ft 120° 120° 7 kt METAR LFBA 251730Z AUTO 12007KT 9000 -RA BKN034/// BKN041/// OVC056/// ///TCU 10/09 Q0997
18:00
V
10 °C 8 km 5.800 ft 120° 120° 8 kt METAR LFBA 251700Z AUTO 12008KT 8000 -RA SCT039/// OVC058/// //////TCU 10/09 Q0996
17:30
V
10 °C 10 km+ 6.600 ft 120° 120° 9 kt METAR LFBA 251630Z AUTO 12009KT 9999 -RA FEW043 SCT052 OVC066 10/09 Q0996
17:00
V
10 °C 8 km 5.600 ft 120° 120° 8 kt METAR LFBA 251600Z AUTO 12008KT 8000 -RA FEW045 OVC056 10/09 Q0997
16:30
V
10 °C 10 km+ 5.400 ft 110° 110° 9 kt METAR LFBA 251530Z AUTO 11009KT 9999 -RA FEW039 SCT045 OVC054 10/09 Q0997
16:00
V
10 °C 10 km+ 4.300 ft 110° 110° 8 kt METAR LFBA 251500Z AUTO 11008KT 9999 -DZ BKN043 OVC052 10/09 Q0997
15:30
V
10 °C 10 km+ 4.200 ft 120° 120° 8 kt METAR LFBA 251430Z AUTO 12008KT 9999 BKN042 OVC049 10/09 Q0998
15:00
V
9 °C 10 km+ 4.600 ft 100° 100° 8 kt METAR LFBA 251400Z AUTO 10008KT 9999 -RA BKN046 OVC052 09/09 Q0998
14:30
V
9 °C 10 km+ 4.600 ft 120° 120° 6 kt METAR LFBA 251330Z AUTO 12006KT 9999 -RA FEW017/// OVC046/// ///TCU 09/08 Q0998
14:00
V
8 °C 9 km 3.300 ft 130° 130° 8 kt METAR LFBA 251300Z AUTO 13008KT 9000 -RA FEW009 BKN033 OVC040 08/08 Q0999
13:30
V
8 °C 8 km 3.500 ft 120° 120° 10 kt METAR LFBA 251230Z AUTO 12010KT 8000 RA FEW012/// BKN035/// BKN043/// //////TCU 08/07 Q1000
13:00
M
8 °C 10 km+ 3.000 ft 140° 140° 9 kt METAR LFBA 251200Z AUTO 14009KT 110V170 9999 -RA BKN030/// OVC039/// //////TCU 08/07 Q1000
12:30
M
7 °C 10 km+ 2.700 ft 140° 140° 14 kt METAR LFBA 251130Z AUTO 14014KT 9999 RA BKN027/// BKN035/// OVC047/// //////TCU 07/06 Q1001
12:00
M
7 °C 10 km+ 2.800 ft 140° 140° 14 kt METAR LFBA 251100Z AUTO 14014KT 9999 RA OVC028/// //////TCU 07/06 Q1001
11:30
M
7 °C 9 km 2.800 ft 140° 140° 13 kt METAR LFBA 251030Z AUTO 14013KT 9000 RA OVC028/// //////TCU 07/06 Q1002
11:00
M
7 °C 8 km 3.000 ft 130° 130° 12 kt METAR LFBA 251000Z AUTO 13012KT 8000 RA BKN030/// OVC036/// //////TCU 07/05 Q1002
10:30
M
7 °C 9 km 2.800 ft 140° 140° 11 kt METAR LFBA 250930Z AUTO 14011KT 9000 RA BKN028/// OVC034/// //////TCU 07/05 Q1003
10:00
V
7 °C 10 km+ 3.100 ft 140° 140° 12 kt METAR LFBA 250900Z AUTO 14012KT 9999 RA OVC031/// ///TCU 07/05 Q1003
09:30
V
7 °C 10 km+ 3.200 ft 140° 140° 10 kt METAR LFBA 250830Z AUTO 14010KT 9999 -RA OVC032/// //////TCU 07/05 Q1004
09:00
V
7 °C 10 km+ 3.200 ft 130° 130° 9 kt METAR LFBA 250800Z AUTO 13009KT 9999 -RA OVC032 07/05 Q1004
08:30
V
7 °C 10 km+ 3.200 ft 130° 130° 10 kt METAR LFBA 250730Z AUTO 13010KT 9999 RA OVC032/// //////TCU 07/05 Q1004
08:00
V
6 °C 9 km 3.300 ft 140° 140° 10 kt METAR LFBA 250700Z AUTO 14010KT 9000 RA BKN033/// OVC041/// //////CB 06/05 Q1004
07:30
V
6 °C 10 km+ 4.000 ft 140° 140° 9 kt METAR LFBA 250630Z AUTO 14009KT 9999 RA BKN040/// BKN049/// OVC058/// ///TCU 06/05 Q1004
07:00
V
6 °C 10 km+ 3.600 ft 140° 140° 10 kt METAR LFBA 250600Z AUTO 14010KT 9999 -RA BKN036/// OVC042/// ///TCU 06/04 Q1005
06:30
V
7 °C 10 km+ 3.700 ft 150° 150° 7 kt METAR LFBA 250530Z AUTO 15007KT 9999 -RA BKN037/// OVC048/// ///TCU 07/04 Q1005
06:00
V
7 °C 10 km+ 4.300 ft 150° 150° 8 kt METAR LFBA 250500Z AUTO 15008KT 9999 -RA OVC043/// ///TCU 07/04 Q1006
05:30
V
7 °C 10 km+ 4.800 ft 140° 140° 8 kt METAR LFBA 250430Z AUTO 14008KT 9999 OVC048 07/05 Q1006
05:00
V
7 °C 10 km+ - 130° 130° 5 kt METAR LFBA 250400Z AUTO 13005KT CAVOK 07/05 Q1006
04:30
V
7 °C 10 km+ 8.800 ft 110° 110° 5 kt METAR LFBA 250330Z AUTO 11005KT 9999 FEW048 BKN088 OVC110 07/05 Q1006
04:00
V
7 °C 10 km+ - 120° 120° 5 kt METAR LFBA 250300Z AUTO 12005KT CAVOK 07/05 Q1007
03:30
V
8 °C 10 km+ - Var Var 3 kt METAR LFBA 250230Z AUTO VRB03KT CAVOK 08/05 Q1007
03:00
V
8 °C 10 km+ - 230° 230° 6 kt METAR LFBA 250200Z AUTO 23006KT CAVOK 08/05 Q1008
02:30
V
8 °C 10 km+ - 230° 230° 7 kt METAR LFBA 250130Z AUTO 23007KT 200V260 CAVOK 08/05 Q1008
02:00
V
8 °C 10 km+ 6.400 ft 230° 230° 8 kt METAR LFBA 250100Z AUTO 23008KT 170V260 9999 FEW038 BKN064 BKN082 08/05 Q1009
01:30
V
8 °C 10 km+ - 220° 220° 9 kt METAR LFBA 250030Z AUTO 22009KT 200V260 CAVOK 08/05 Q1009
01:00
V
8 °C 10 km+ - 230° 230° 10 kt METAR LFBA 250000Z AUTO 23010KT 200V260 CAVOK 08/05 Q1010
00:30
V
8 °C 10 km+ - 230° 230° 10 kt METAR LFBA 242330Z AUTO 23010KT CAVOK 08/05 Q1010
00:00
V
8 °C 10 km+ - 220° 220° 11 kt METAR LFBA 242300Z AUTO 22011KT 190V250 9999 //////TCU 08/05 Q1010

24 lutego 2024

Czas Kod Pogoda Temp. Widoczność Sufit Wiatr METAR/SPECI
23:30
V
8 °C 10 km+ - 220° 220° 10 kt METAR LFBA 242230Z AUTO 22010KT 190V260 9999 //////TCU 08/05 Q1010
23:00
V
7 °C 10 km+ 4.700 ft 220° 220° 10 kt METAR LFBA 242200Z AUTO 22010KT 9999 FEW039/// BKN047/// OVC058/// //////TCU 07/05 Q1011
22:30
V
7 °C 10 km+ - 220° 220° 13 kt METAR LFBA 242130Z AUTO 22013KT 200V260 9999 -RA //////CB 07/05 Q1011
22:00
V
7 °C 10 km+ - 220° 220° 10 kt METAR LFBA 242100Z AUTO 22010KT 190V250 9999 //////TCU 07/04 Q1011
21:30
V
7 °C 10 km+ - 220° 220° 13 kt METAR LFBA 242030Z AUTO 22013KT CAVOK 07/04 Q1011
21:00
V
7 °C 10 km+ 6.400 ft 220° 220° 13 - 24 kt METAR LFBA 242000Z AUTO 22013G24KT 190V250 9999 FEW045 SCT052 BKN064 07/04 Q1010
20:30
V
7 °C 10 km+ 7.800 ft 220° 220° 12 kt METAR LFBA 241930Z AUTO 22012KT 9999 FEW041/// SCT066/// BKN078/// //////TCU 07/04 Q1011
20:00
V
7 °C 10 km+ - 230° 230° 12 kt METAR LFBA 241900Z AUTO 23012KT CAVOK 07/04 Q1011
19:30
V
8 °C 10 km+ - 230° 230° 11 kt METAR LFBA 241830Z AUTO 23011KT 200V260 9999 //////TCU 08/04 Q1010
19:00
V
8 °C 10 km+ 15.000 ft 240° 240° 10 kt METAR LFBA 241800Z AUTO 24010KT 210V270 9999 FEW024 SCT100 BKN150 08/04 Q1011
18:30
V
8 °C 10 km+ - 240° 240° 10 kt METAR LFBA 241730Z AUTO 24010KT 210V270 CAVOK 08/04 Q1010
18:00
V
9 °C 10 km+ - 230° 230° 11 kt METAR LFBA 241700Z AUTO 23011KT CAVOK 09/04 Q1010
17:30
V
9 °C 10 km+ - 240° 240° 9 kt METAR LFBA 241630Z AUTO 24009KT 210V270 9999 FEW028 09/04 Q1010
17:00
V
10 °C 10 km+ - 240° 240° 11 kt METAR LFBA 241600Z AUTO 24011KT 210V270 9999 FEW031 SCT037 10/04 Q1009
16:30
V
11 °C 10 km+ 3.400 ft 240° 240° 12 kt METAR LFBA 241530Z AUTO 24012KT 210V280 9999 BKN034 11/04 Q1009
16:00
V
11 °C 10 km+ - 250° 250° 13 kt METAR LFBA 241500Z AUTO 25013KT 220V280 9999 FEW033/// ///TCU 11/04 Q1009
15:30
V
11 °C 10 km+ - 250° 250° 10 kt METAR LFBA 241430Z AUTO 25010KT 210V280 9999 FEW032/// SCT042/// //////CB 11/05 Q1009
15:00
V
11 °C 10 km+ 4.600 ft 260° 260° 11 kt METAR LFBA 241400Z AUTO 26011KT 220V290 9999 FEW027/// SCT033/// BKN046/// //////TCU 11/05 Q1009
14:30
M
10 °C 10 km+ 2.700 ft 240° 240° 10 kt METAR LFBA 241330Z AUTO 24010KT 210V280 9999 BKN027 BKN035 BKN047 10/05 Q1009
14:00
V
11 °C 10 km+ 3.300 ft 250° 250° 10 kt METAR LFBA 241300Z AUTO 25010KT 210V290 9999 FEW026 BKN033 BKN043 11/05 Q1008
13:30
M
10 °C 10 km+ 2.300 ft 260° 260° 9 kt METAR LFBA 241230Z AUTO 26009KT 210V290 9999 BKN023 BKN032 10/05 Q1008
13:00
V
10 °C 10 km+ - 250° 250° 9 kt METAR LFBA 241200Z AUTO 25009KT 220V280 9999 SCT020 10/05 Q1008
12:30
M
8 °C 10 km+ 1.700 ft 260° 260° 10 kt METAR LFBA 241130Z AUTO 26010KT 220V290 9999 BKN017 08/04 Q1008
12:00
V
8 °C 10 km+ - 250° 250° 11 kt METAR LFBA 241100Z AUTO 25011KT 220V280 9999 SCT015 08/04 Q1008
11:30
M
7 °C 10 km+ 1.400 ft 240° 240° 10 kt METAR LFBA 241030Z AUTO 24010KT 200V270 9999 BKN014 BKN190 07/04 Q1008
11:00
M
7 °C 10 km+ 1.300 ft 240° 240° 12 kt METAR LFBA 241000Z AUTO 24012KT 210V270 9999 BKN013 07/04 Q1007
10:30
V
6 °C 10 km+ - 220° 220° 12 kt METAR LFBA 240930Z AUTO 22012KT 200V260 9999 FEW009 SCT029 06/04 Q1007
10:00
V
5 °C 10 km+ 3.100 ft 240° 240° 11 kt METAR LFBA 240900Z AUTO 24011KT 200V270 9999 -RA FEW013 BKN031 OVC040 05/04 Q1007
09:30
V
5 °C 10 km+ 3.800 ft 240° 240° 11 kt METAR LFBA 240830Z AUTO 24011KT 210V270 9999 -RA FEW013 BKN038 OVC044 05/04 Q1007
09:00
V
5 °C 10 km+ - 230° 230° 10 kt METAR LFBA 240800Z AUTO 23010KT 200V270 9999 FEW013 SCT046 05/03 Q1006
08:30
M
5 °C 10 km+ 1.400 ft 250° 250° 9 kt METAR LFBA 240730Z AUTO 25009KT 210V280 9999 BKN014 BKN043 OVC094 05/03 Q1005
08:00
V
5 °C 10 km+ 3.500 ft 240° 240° 7 kt METAR LFBA 240700Z AUTO 24007KT 210V270 9999 FEW016 BKN035 BKN045 05/03 Q1005
07:30
V
5 °C 10 km+ 3.400 ft 250° 250° 7 kt METAR LFBA 240630Z AUTO 25007KT 210V270 9999 -RA SCT015 SCT023 BKN034 05/04 Q1005
07:00
M
5 °C 10 km+ 1.600 ft Var Var 3 kt METAR LFBA 240600Z AUTO VRB03KT 9999 BKN016 OVC033 05/03 Q1004